sensor_id;sensor_type;location;lat;lon;timestamp;temperature;humidity
10314;DHT22;5202;49.138;10.090;2023-05-15T00:02:09;12.10;99.90
10314;DHT22;5202;49.138;10.090;2023-05-15T00:04:39;11.90;99.90
10314;DHT22;5202;49.138;10.090;2023-05-15T00:07:08;11.80;99.90
10314;DHT22;5202;49.138;10.090;2023-05-15T00:09:37;11.70;99.90
10314;DHT22;5202;49.138;10.090;2023-05-15T00:12:06;11.40;99.90
10314;DHT22;5202;49.138;10.090;2023-05-15T00:14:35;11.30;99.90
10314;DHT22;5202;49.138;10.090;2023-05-15T00:17:03;11.30;99.90
10314;DHT22;5202;49.138;10.090;2023-05-15T00:19:32;11.40;99.90
10314;DHT22;5202;49.138;10.090;2023-05-15T00:22:01;11.50;99.90
10314;DHT22;5202;49.138;10.090;2023-05-15T00:24:30;11.50;99.90
10314;DHT22;5202;49.138;10.090;2023-05-15T00:26:58;11.50;99.90
10314;DHT22;5202;49.138;10.090;2023-05-15T00:29:27;11.50;99.90
10314;DHT22;5202;49.138;10.090;2023-05-15T00:31:55;11.50;99.90
10314;DHT22;5202;49.138;10.090;2023-05-15T00:34:24;11.50;99.90
10314;DHT22;5202;49.138;10.090;2023-05-15T00:36:52;11.50;99.90
10314;DHT22;5202;49.138;10.090;2023-05-15T00:39:22;11.40;99.90
10314;DHT22;5202;49.138;10.090;2023-05-15T00:41:50;11.50;99.90
10314;DHT22;5202;49.138;10.090;2023-05-15T00:44:20;11.40;99.90
10314;DHT22;5202;49.138;10.090;2023-05-15T00:46:48;11.40;99.90
10314;DHT22;5202;49.138;10.090;2023-05-15T00:49:17;11.30;99.90
10314;DHT22;5202;49.138;10.090;2023-05-15T00:52:02;11.30;99.90
10314;DHT22;5202;49.138;10.090;2023-05-15T00:54:36;11.20;99.90
10314;DHT22;5202;49.138;10.090;2023-05-15T00:57:04;11.10;99.90
10314;DHT22;5202;49.138;10.090;2023-05-15T00:59:35;11.00;99.90
10314;DHT22;5202;49.138;10.090;2023-05-15T01:02:06;11.00;99.90
10314;DHT22;5202;49.138;10.090;2023-05-15T01:04:34;11.00;99.90
10314;DHT22;5202;49.138;10.090;2023-05-15T01:07:03;11.10;99.90
10314;DHT22;5202;49.138;10.090;2023-05-15T01:09:32;11.00;99.90
10314;DHT22;5202;49.138;10.090;2023-05-15T01:12:04;11.00;99.90
10314;DHT22;5202;49.138;10.090;2023-05-15T01:14:35;11.00;99.90
10314;DHT22;5202;49.138;10.090;2023-05-15T01:17:03;11.00;99.90
10314;DHT22;5202;49.138;10.090;2023-05-15T01:19:33;11.00;99.90
10314;DHT22;5202;49.138;10.090;2023-05-15T01:22:18;11.00;99.90
10314;DHT22;5202;49.138;10.090;2023-05-15T01:25:13;11.00;99.90
10314;DHT22;5202;49.138;10.090;2023-05-15T01:27:51;11.00;99.90
10314;DHT22;5202;49.138;10.090;2023-05-15T01:30:27;11.00;99.90
10314;DHT22;5202;49.138;10.090;2023-05-15T01:33:04;11.00;99.90
10314;DHT22;5202;49.138;10.090;2023-05-15T01:35:37;11.00;99.90
10314;DHT22;5202;49.138;10.090;2023-05-15T01:38:14;11.00;99.90
10314;DHT22;5202;49.138;10.090;2023-05-15T01:40:58;11.00;99.90
10314;DHT22;5202;49.138;10.090;2023-05-15T01:43:32;11.00;99.90
10314;DHT22;5202;49.138;10.090;2023-05-15T01:46:02;10.90;99.90
10314;DHT22;5202;49.138;10.090;2023-05-15T01:48:32;10.90;99.90
10314;DHT22;5202;49.138;10.090;2023-05-15T01:51:03;10.90;99.90
10314;DHT22;5202;49.138;10.090;2023-05-15T01:53:35;11.00;99.90
10314;DHT22;5202;49.138;10.090;2023-05-15T01:56:06;11.00;99.90
10314;DHT22;5202;49.138;10.090;2023-05-15T01:58:38;10.90;99.90
10314;DHT22;5202;49.138;10.090;2023-05-15T02:01:08;10.90;99.90
10314;DHT22;5202;49.138;10.090;2023-05-15T02:03:39;10.90;99.90
10314;DHT22;5202;49.138;10.090;2023-05-15T02:06:09;10.80;99.90
10314;DHT22;5202;49.138;10.090;2023-05-15T02:08:41;10.70;99.90
10314;DHT22;5202;49.138;10.090;2023-05-15T02:11:10;10.80;99.90
10314;DHT22;5202;49.138;10.090;2023-05-15T02:13:41;10.80;99.90
10314;DHT22;5202;49.138;10.090;2023-05-15T02:16:10;10.80;99.90
10314;DHT22;5202;49.138;10.090;2023-05-15T02:18:39;11.00;99.90
10314;DHT22;5202;49.138;10.090;2023-05-15T02:21:07;10.90;99.90
10314;DHT22;5202;49.138;10.090;2023-05-15T02:23:36;11.00;99.90
10314;DHT22;5202;49.138;10.090;2023-05-15T02:26:17;10.90;99.90
10314;DHT22;5202;49.138;10.090;2023-05-15T02:29:05;11.00;99.90
10314;DHT22;5202;49.138;10.090;2023-05-15T02:31:43;10.90;99.90
10314;DHT22;5202;49.138;10.090;2023-05-15T02:34:20;10.80;99.90
10314;DHT22;5202;49.138;10.090;2023-05-15T02:36:57;10.70;99.90
10314;DHT22;5202;49.138;10.090;2023-05-15T02:39:28;10.70;99.90
10314;DHT22;5202;49.138;10.090;2023-05-15T02:41:58;10.70;99.90
10314;DHT22;5202;49.138;10.090;2023-05-15T02:44:30;10.50;99.90
10314;DHT22;5202;49.138;10.090;2023-05-15T02:46:59;10.50;99.90
10314;DHT22;5202;49.138;10.090;2023-05-15T02:49:28;10.50;99.90
10314;DHT22;5202;49.138;10.090;2023-05-15T02:51:56;10.70;99.90
10314;DHT22;5202;49.138;10.090;2023-05-15T02:54:24;10.70;99.90
10314;DHT22;5202;49.138;10.090;2023-05-15T02:56:53;10.60;99.90
10314;DHT22;5202;49.138;10.090;2023-05-15T02:59:21;10.60;99.90
10314;DHT22;5202;49.138;10.090;2023-05-15T03:01:51;10.60;99.90
10314;DHT22;5202;49.138;10.090;2023-05-15T03:04:19;10.60;99.90
10314;DHT22;5202;49.138;10.090;2023-05-15T03:06:48;10.60;99.90
10314;DHT22;5202;49.138;10.090;2023-05-15T03:09:16;10.60;99.90
10314;DHT22;5202;49.138;10.090;2023-05-15T03:11:44;10.50;99.90
10314;DHT22;5202;49.138;10.090;2023-05-15T03:14:13;10.50;99.90
10314;DHT22;5202;49.138;10.090;2023-05-15T03:16:41;10.50;99.90
10314;DHT22;5202;49.138;10.090;2023-05-15T03:19:11;10.60;99.90
10314;DHT22;5202;49.138;10.090;2023-05-15T03:21:39;10.50;99.90
10314;DHT22;5202;49.138;10.090;2023-05-15T03:24:07;10.50;99.90
10314;DHT22;5202;49.138;10.090;2023-05-15T03:26:36;10.50;99.90
10314;DHT22;5202;49.138;10.090;2023-05-15T03:29:06;10.40;99.90
10314;DHT22;5202;49.138;10.090;2023-05-15T03:31:34;10.40;99.90
10314;DHT22;5202;49.138;10.090;2023-05-15T03:34:02;10.40;99.90
10314;DHT22;5202;49.138;10.090;2023-05-15T03:36:32;10.30;99.90
10314;DHT22;5202;49.138;10.090;2023-05-15T03:39:00;10.30;99.90
10314;DHT22;5202;49.138;10.090;2023-05-15T03:41:28;10.30;99.90
10314;DHT22;5202;49.138;10.090;2023-05-15T03:43:59;10.30;99.90
10314;DHT22;5202;49.138;10.090;2023-05-15T03:46:27;10.30;99.90
10314;DHT22;5202;49.138;10.090;2023-05-15T03:48:55;10.30;99.90
10314;DHT22;5202;49.138;10.090;2023-05-15T03:51:25;10.30;99.90
10314;DHT22;5202;49.138;10.090;2023-05-15T03:53:55;10.30;99.90
10314;DHT22;5202;49.138;10.090;2023-05-15T03:56:23;10.30;99.90
10314;DHT22;5202;49.138;10.090;2023-05-15T03:58:52;10.30;99.90
10314;DHT22;5202;49.138;10.090;2023-05-15T04:01:24;10.20;99.90
10314;DHT22;5202;49.138;10.090;2023-05-15T04:03:53;10.20;99.90
10314;DHT22;5202;49.138;10.090;2023-05-15T04:06:22;10.10;99.90
10314;DHT22;5202;49.138;10.090;2023-05-15T04:08:50;10.10;99.90
10314;DHT22;5202;49.138;10.090;2023-05-15T04:11:20;10.00;99.90
10314;DHT22;5202;49.138;10.090;2023-05-15T04:13:49;10.00;99.90
10314;DHT22;5202;49.138;10.090;2023-05-15T04:16:18;9.80;99.90
10314;DHT22;5202;49.138;10.090;2023-05-15T04:18:46;9.80;99.90
10314;DHT22;5202;49.138;10.090;2023-05-15T04:21:14;9.80;99.90
10314;DHT22;5202;49.138;10.090;2023-05-15T04:23:42;9.80;99.90
10314;DHT22;5202;49.138;10.090;2023-05-15T04:26:11;9.80;99.90
10314;DHT22;5202;49.138;10.090;2023-05-15T04:28:40;9.70;99.90
10314;DHT22;5202;49.138;10.090;2023-05-15T04:31:28;9.80;99.90
10314;DHT22;5202;49.138;10.090;2023-05-15T04:33:57;9.80;99.90
10314;DHT22;5202;49.138;10.090;2023-05-15T04:36:26;9.80;99.90
10314;DHT22;5202;49.138;10.090;2023-05-15T04:38:54;9.70;99.90
10314;DHT22;5202;49.138;10.090;2023-05-15T04:41:22;9.80;99.90
10314;DHT22;5202;49.138;10.090;2023-05-15T04:43:53;9.80;99.90
10314;DHT22;5202;49.138;10.090;2023-05-15T04:46:21;9.70;99.90
10314;DHT22;5202;49.138;10.090;2023-05-15T04:48:50;9.80;99.90
10314;DHT22;5202;49.138;10.090;2023-05-15T04:51:18;9.80;99.90
10314;DHT22;5202;49.138;10.090;2023-05-15T04:53:46;9.80;99.90
10314;DHT22;5202;49.138;10.090;2023-05-15T04:56:14;9.80;99.90
10314;DHT22;5202;49.138;10.090;2023-05-15T04:58:43;9.80;99.90
10314;DHT22;5202;49.138;10.090;2023-05-15T05:01:12;9.90;99.90
10314;DHT22;5202;49.138;10.090;2023-05-15T05:03:41;9.90;99.90
10314;DHT22;5202;49.138;10.090;2023-05-15T05:06:09;10.00;99.90
10314;DHT22;5202;49.138;10.090;2023-05-15T05:08:37;10.00;99.90
10314;DHT22;5202;49.138;10.090;2023-05-15T05:11:06;10.00;99.90
10314;DHT22;5202;49.138;10.090;2023-05-15T05:13:34;10.10;99.90
10314;DHT22;5202;49.138;10.090;2023-05-15T05:16:02;10.10;99.90
10314;DHT22;5202;49.138;10.090;2023-05-15T05:18:32;10.10;99.90
10314;DHT22;5202;49.138;10.090;2023-05-15T05:21:01;10.20;99.90
10314;DHT22;5202;49.138;10.090;2023-05-15T05:23:30;10.20;99.90
10314;DHT22;5202;49.138;10.090;2023-05-15T05:25:58;10.30;99.90
10314;DHT22;5202;49.138;10.090;2023-05-15T05:28:26;10.40;99.90
10314;DHT22;5202;49.138;10.090;2023-05-15T05:30:55;10.40;99.90
10314;DHT22;5202;49.138;10.090;2023-05-15T05:33:23;10.40;99.90
10314;DHT22;5202;49.138;10.090;2023-05-15T05:35:53;10.40;99.90
10314;DHT22;5202;49.138;10.090;2023-05-15T05:38:21;10.60;99.90
10314;DHT22;5202;49.138;10.090;2023-05-15T05:40:49;10.80;99.90
10314;DHT22;5202;49.138;10.090;2023-05-15T05:43:18;10.80;99.90
10314;DHT22;5202;49.138;10.090;2023-05-15T05:45:47;10.90;99.90
10314;DHT22;5202;49.138;10.090;2023-05-15T05:48:15;11.00;99.90
10314;DHT22;5202;49.138;10.090;2023-05-15T05:50:43;11.10;99.90
10314;DHT22;5202;49.138;10.090;2023-05-15T05:53:13;11.20;99.90
10314;DHT22;5202;49.138;10.090;2023-05-15T05:55:42;11.20;99.90
10314;DHT22;5202;49.138;10.090;2023-05-15T05:58:10;11.30;99.90
10314;DHT22;5202;49.138;10.090;2023-05-15T06:00:50;11.20;99.90
10314;DHT22;5202;49.138;10.090;2023-05-15T06:03:19;11.20;99.90
10314;DHT22;5202;49.138;10.090;2023-05-15T06:05:48;11.20;99.90
10314;DHT22;5202;49.138;10.090;2023-05-15T06:08:20;11.30;99.90
10314;DHT22;5202;49.138;10.090;2023-05-15T06:10:48;11.30;99.90
10314;DHT22;5202;49.138;10.090;2023-05-15T06:13:16;11.30;99.90
10314;DHT22;5202;49.138;10.090;2023-05-15T06:15:45;11.30;99.90
10314;DHT22;5202;49.138;10.090;2023-05-15T06:18:13;11.30;99.90
10314;DHT22;5202;49.138;10.090;2023-05-15T06:20:42;11.30;99.90
10314;DHT22;5202;49.138;10.090;2023-05-15T06:23:10;11.40;99.90
10314;DHT22;5202;49.138;10.090;2023-05-15T06:25:39;11.60;99.90
10314;DHT22;5202;49.138;10.090;2023-05-15T06:28:08;11.70;99.90
10314;DHT22;5202;49.138;10.090;2023-05-15T06:30:36;11.90;99.90
10314;DHT22;5202;49.138;10.090;2023-05-15T06:33:04;12.00;99.90
10314;DHT22;5202;49.138;10.090;2023-05-15T06:35:33;12.00;99.90
10314;DHT22;5202;49.138;10.090;2023-05-15T06:38:01;12.10;99.90
10314;DHT22;5202;49.138;10.090;2023-05-15T06:40:29;12.10;99.90
10314;DHT22;5202;49.138;10.090;2023-05-15T06:42:59;12.30;99.90
10314;DHT22;5202;49.138;10.090;2023-05-15T06:45:27;12.30;99.90
10314;DHT22;5202;49.138;10.090;2023-05-15T06:47:56;12.40;99.90
10314;DHT22;5202;49.138;10.090;2023-05-15T06:50:28;12.50;99.90
10314;DHT22;5202;49.138;10.090;2023-05-15T06:52:57;12.60;99.90
10314;DHT22;5202;49.138;10.090;2023-05-15T06:55:26;12.80;99.90
10314;DHT22;5202;49.138;10.090;2023-05-15T06:57:54;12.70;99.90
10314;DHT22;5202;49.138;10.090;2023-05-15T07:00:24;12.80;99.90
10314;DHT22;5202;49.138;10.090;2023-05-15T07:02:52;12.70;99.90
10314;DHT22;5202;49.138;10.090;2023-05-15T07:05:20;12.70;99.90
10314;DHT22;5202;49.138;10.090;2023-05-15T07:07:49;12.70;99.90
10314;DHT22;5202;49.138;10.090;2023-05-15T07:10:18;12.70;99.90
10314;DHT22;5202;49.138;10.090;2023-05-15T07:12:46;12.80;99.90
10314;DHT22;5202;49.138;10.090;2023-05-15T07:15:14;12.90;99.90
10314;DHT22;5202;49.138;10.090;2023-05-15T07:17:45;12.90;99.90
10314;DHT22;5202;49.138;10.090;2023-05-15T07:20:13;13.10;99.90
10314;DHT22;5202;49.138;10.090;2023-05-15T07:22:41;13.40;99.90
10314;DHT22;5202;49.138;10.090;2023-05-15T07:25:21;13.30;99.90
10314;DHT22;5202;49.138;10.090;2023-05-15T07:27:51;13.30;99.90
10314;DHT22;5202;49.138;10.090;2023-05-15T07:30:20;13.40;99.90
10314;DHT22;5202;49.138;10.090;2023-05-15T07:32:52;13.50;99.90
10314;DHT22;5202;49.138;10.090;2023-05-15T07:35:21;13.60;99.90
10314;DHT22;5202;49.138;10.090;2023-05-15T07:37:50;13.70;99.90
10314;DHT22;5202;49.138;10.090;2023-05-15T07:40:19;13.70;99.90
10314;DHT22;5202;49.138;10.090;2023-05-15T07:42:47;13.90;99.90
10314;DHT22;5202;49.138;10.090;2023-05-15T07:45:15;14.10;99.90
10314;DHT22;5202;49.138;10.090;2023-05-15T07:47:44;14.30;99.90
10314;DHT22;5202;49.138;10.090;2023-05-15T07:50:15;14.30;99.90
10314;DHT22;5202;49.138;10.090;2023-05-15T07:52:44;14.40;99.90
10314;DHT22;5202;49.138;10.090;2023-05-15T07:55:12;14.40;99.90
10314;DHT22;5202;49.138;10.090;2023-05-15T07:57:40;14.50;99.90
10314;DHT22;5202;49.138;10.090;2023-05-15T08:00:09;14.60;99.90
10314;DHT22;5202;49.138;10.090;2023-05-15T08:02:40;14.80;99.90
10314;DHT22;5202;49.138;10.090;2023-05-15T08:05:20;14.90;99.90
10314;DHT22;5202;49.138;10.090;2023-05-15T08:07:48;15.00;99.90
10314;DHT22;5202;49.138;10.090;2023-05-15T08:10:17;15.00;99.90
10314;DHT22;5202;49.138;10.090;2023-05-15T08:12:45;15.10;99.90
10314;DHT22;5202;49.138;10.090;2023-05-15T08:15:15;15.30;99.90
10314;DHT22;5202;49.138;10.090;2023-05-15T08:17:43;15.40;99.90
10314;DHT22;5202;49.138;10.090;2023-05-15T08:20:12;15.40;99.90
10314;DHT22;5202;49.138;10.090;2023-05-15T08:22:42;15.40;99.90
10314;DHT22;5202;49.138;10.090;2023-05-15T08:25:10;15.50;99.90
10314;DHT22;5202;49.138;10.090;2023-05-15T08:27:39;15.40;99.90
10314;DHT22;5202;49.138;10.090;2023-05-15T08:30:08;15.40;99.90
10314;DHT22;5202;49.138;10.090;2023-05-15T08:32:37;15.50;99.90
10314;DHT22;5202;49.138;10.090;2023-05-15T08:35:06;15.50;99.90
10314;DHT22;5202;49.138;10.090;2023-05-15T08:37:35;15.70;99.70
10314;DHT22;5202;49.138;10.090;2023-05-15T08:40:06;15.80;99.90
10314;DHT22;5202;49.138;10.090;2023-05-15T08:42:41;15.90;99.20
10314;DHT22;5202;49.138;10.090;2023-05-15T08:45:11;16.00;99.90
10314;DHT22;5202;49.138;10.090;2023-05-15T08:47:41;16.10;99.90
10314;DHT22;5202;49.138;10.090;2023-05-15T08:50:11;16.20;98.90
10314;DHT22;5202;49.138;10.090;2023-05-15T08:52:42;16.10;98.70
10314;DHT22;5202;49.138;10.090;2023-05-15T08:55:14;16.10;98.40
10314;DHT22;5202;49.138;10.090;2023-05-15T08:57:43;16.20;98.60
10314;DHT22;5202;49.138;10.090;2023-05-15T09:00:13;16.30;98.40
10314;DHT22;5202;49.138;10.090;2023-05-15T09:02:42;16.20;98.00
10314;DHT22;5202;49.138;10.090;2023-05-15T09:05:10;16.40;97.20
10314;DHT22;5202;49.138;10.090;2023-05-15T09:07:39;16.40;98.00
10314;DHT22;5202;49.138;10.090;2023-05-15T09:10:09;16.50;98.10
10314;DHT22;5202;49.138;10.090;2023-05-15T09:12:41;16.50;97.00
10314;DHT22;5202;49.138;10.090;2023-05-15T09:15:12;16.80;97.70
10314;DHT22;5202;49.138;10.090;2023-05-15T09:17:44;17.10;97.30
10314;DHT22;5202;49.138;10.090;2023-05-15T09:20:28;17.00;96.30
10314;DHT22;5202;49.138;10.090;2023-05-15T09:22:59;17.30;96.90
10314;DHT22;5202;49.138;10.090;2023-05-15T09:25:33;17.20;95.90
10314;DHT22;5202;49.138;10.090;2023-05-15T09:28:05;17.00;96.20
10314;DHT22;5202;49.138;10.090;2023-05-15T09:30:37;16.90;96.40
10314;DHT22;5202;49.138;10.090;2023-05-15T09:33:05;16.90;96.20
10314;DHT22;5202;49.138;10.090;2023-05-15T09:35:35;16.80;95.30
10314;DHT22;5202;49.138;10.090;2023-05-15T09:38:08;16.80;94.80
10314;DHT22;5202;49.138;10.090;2023-05-15T09:40:39;17.00;94.90
10314;DHT22;5202;49.138;10.090;2023-05-15T09:43:10;17.30;94.40
10314;DHT22;5202;49.138;10.090;2023-05-15T09:45:38;17.50;94.50
10314;DHT22;5202;49.138;10.090;2023-05-15T09:48:07;17.50;93.70
10314;DHT22;5202;49.138;10.090;2023-05-15T09:50:38;17.50;93.60
10314;DHT22;5202;49.138;10.090;2023-05-15T09:53:10;17.50;93.80
10314;DHT22;5202;49.138;10.090;2023-05-15T09:55:40;17.50;93.70
10314;DHT22;5202;49.138;10.090;2023-05-15T09:58:12;17.60;93.40
10314;DHT22;5202;49.138;10.090;2023-05-15T10:00:42;17.70;93.50
10314;DHT22;5202;49.138;10.090;2023-05-15T10:03:16;18.00;94.00
10314;DHT22;5202;49.138;10.090;2023-05-15T10:06:17;18.10;94.30
10314;DHT22;5202;49.138;10.090;2023-05-15T10:08:50;17.80;92.90
10314;DHT22;5202;49.138;10.090;2023-05-15T10:11:19;17.50;92.30
10314;DHT22;5202;49.138;10.090;2023-05-15T10:13:49;17.20;93.90
10314;DHT22;5202;49.138;10.090;2023-05-15T10:16:19;17.00;95.50
10314;DHT22;5202;49.138;10.090;2023-05-15T10:18:50;17.00;95.80
10314;DHT22;5202;49.138;10.090;2023-05-15T10:21:19;17.00;96.00
10314;DHT22;5202;49.138;10.090;2023-05-15T10:23:49;16.90;96.10
10314;DHT22;5202;49.138;10.090;2023-05-15T10:26:22;16.90;95.20
10314;DHT22;5202;49.138;10.090;2023-05-15T10:28:53;17.00;96.70
10314;DHT22;5202;49.138;10.090;2023-05-15T10:31:22;17.20;96.50
10314;DHT22;5202;49.138;10.090;2023-05-15T10:33:53;17.30;94.80
10314;DHT22;5202;49.138;10.090;2023-05-15T10:36:22;17.30;95.10
10314;DHT22;5202;49.138;10.090;2023-05-15T10:38:51;17.20;96.50
10314;DHT22;5202;49.138;10.090;2023-05-15T10:41:20;17.10;96.20
10314;DHT22;5202;49.138;10.090;2023-05-15T10:43:54;16.90;95.80
10314;DHT22;5202;49.138;10.090;2023-05-15T10:46:38;16.60;95.40
10314;DHT22;5202;49.138;10.090;2023-05-15T10:49:06;16.40;95.30
10314;DHT22;5202;49.138;10.090;2023-05-15T10:51:36;16.20;94.20
10314;DHT22;5202;49.138;10.090;2023-05-15T10:54:08;15.90;92.90
10314;DHT22;5202;49.138;10.090;2023-05-15T10:56:37;15.80;93.50
10314;DHT22;5202;49.138;10.090;2023-05-15T10:59:09;15.70;94.30
10314;DHT22;5202;49.138;10.090;2023-05-15T11:01:39;15.70;93.10
10314;DHT22;5202;49.138;10.090;2023-05-15T11:04:10;15.80;93.60
10314;DHT22;5202;49.138;10.090;2023-05-15T11:06:40;15.80;92.10
10314;DHT22;5202;49.138;10.090;2023-05-15T11:09:35;15.80;93.70
10314;DHT22;5202;49.138;10.090;2023-05-15T11:12:06;15.80;94.50
10314;DHT22;5202;49.138;10.090;2023-05-15T11:14:38;15.70;93.80
10314;DHT22;5202;49.138;10.090;2023-05-15T11:17:08;15.70;92.90
10314;DHT22;5202;49.138;10.090;2023-05-15T11:19:53;15.70;92.20
10314;DHT22;5202;49.138;10.090;2023-05-15T11:22:29;15.80;93.40
10314;DHT22;5202;49.138;10.090;2023-05-15T11:25:00;15.90;95.00
10314;DHT22;5202;49.138;10.090;2023-05-15T11:27:30;16.10;96.00
10314;DHT22;5202;49.138;10.090;2023-05-15T11:30:09;16.40;97.50
10314;DHT22;5202;49.138;10.090;2023-05-15T11:32:44;16.60;96.90
10314;DHT22;5202;49.138;10.090;2023-05-15T11:35:21;16.70;95.70
10314;DHT22;5202;49.138;10.090;2023-05-15T11:37:52;16.80;94.20
10314;DHT22;5202;49.138;10.090;2023-05-15T11:40:23;17.00;93.60
10314;DHT22;5202;49.138;10.090;2023-05-15T11:43:04;17.00;93.30
10314;DHT22;5202;49.138;10.090;2023-05-15T11:45:37;17.10;93.90
10314;DHT22;5202;49.138;10.090;2023-05-15T11:48:09;17.30;93.40
10314;DHT22;5202;49.138;10.090;2023-05-15T11:50:40;17.20;93.20
10314;DHT22;5202;49.138;10.090;2023-05-15T11:53:09;17.00;94.80
10314;DHT22;5202;49.138;10.090;2023-05-15T11:55:39;17.00;95.40
10314;DHT22;5202;49.138;10.090;2023-05-15T11:58:11;17.10;95.10
10314;DHT22;5202;49.138;10.090;2023-05-15T12:00:42;17.00;93.90
10314;DHT22;5202;49.138;10.090;2023-05-15T12:03:15;17.00;94.70
10314;DHT22;5202;49.138;10.090;2023-05-15T12:05:45;16.90;94.40
10314;DHT22;5202;49.138;10.090;2023-05-15T12:08:25;16.90;93.40
10314;DHT22;5202;49.138;10.090;2023-05-15T12:10:59;16.90;91.70
10314;DHT22;5202;49.138;10.090;2023-05-15T12:13:28;16.80;92.00
10314;DHT22;5202;49.138;10.090;2023-05-15T12:15:59;16.90;93.30
10314;DHT22;5202;49.138;10.090;2023-05-15T12:18:29;16.90;93.70
10314;DHT22;5202;49.138;10.090;2023-05-15T12:20:58;16.90;93.70
10314;DHT22;5202;49.138;10.090;2023-05-15T12:23:27;17.00;93.40
10314;DHT22;5202;49.138;10.090;2023-05-15T12:25:57;17.10;93.40
10314;DHT22;5202;49.138;10.090;2023-05-15T12:28:28;17.10;93.00
10314;DHT22;5202;49.138;10.090;2023-05-15T12:30:58;17.10;92.60
10314;DHT22;5202;49.138;10.090;2023-05-15T12:33:32;17.10;92.30
10314;DHT22;5202;49.138;10.090;2023-05-15T12:36:01;17.10;91.90
10314;DHT22;5202;49.138;10.090;2023-05-15T12:38:30;17.20;92.50
10314;DHT22;5202;49.138;10.090;2023-05-15T12:40:59;17.20;91.90
10314;DHT22;5202;49.138;10.090;2023-05-15T12:43:30;17.20;91.40
10314;DHT22;5202;49.138;10.090;2023-05-15T12:46:00;17.40;92.40
10314;DHT22;5202;49.138;10.090;2023-05-15T12:48:29;17.60;92.00
10314;DHT22;5202;49.138;10.090;2023-05-15T12:51:03;17.70;91.10
10314;DHT22;5202;49.138;10.090;2023-05-15T12:53:33;17.90;91.40
10314;DHT22;5202;49.138;10.090;2023-05-15T12:56:05;18.30;91.40
10314;DHT22;5202;49.138;10.090;2023-05-15T12:58:35;18.50;90.00
10314;DHT22;5202;49.138;10.090;2023-05-15T13:01:05;18.70;87.60
10314;DHT22;5202;49.138;10.090;2023-05-15T13:03:34;18.70;91.00
10314;DHT22;5202;49.138;10.090;2023-05-15T13:06:03;18.50;91.50
10314;DHT22;5202;49.138;10.090;2023-05-15T13:08:38;18.20;91.80
10314;DHT22;5202;49.138;10.090;2023-05-15T13:11:11;17.90;92.40
10314;DHT22;5202;49.138;10.090;2023-05-15T13:13:44;17.80;93.90
10314;DHT22;5202;49.138;10.090;2023-05-15T13:16:20;17.60;94.50
10314;DHT22;5202;49.138;10.090;2023-05-15T13:18:49;17.10;96.70
10314;DHT22;5202;49.138;10.090;2023-05-15T13:21:18;16.30;97.40
10314;DHT22;5202;49.138;10.090;2023-05-15T13:23:46;16.00;99.90
10314;DHT22;5202;49.138;10.090;2023-05-15T13:26:15;16.00;99.90
10314;DHT22;5202;49.138;10.090;2023-05-15T13:28:43;16.00;99.90
10314;DHT22;5202;49.138;10.090;2023-05-15T13:31:11;15.90;99.90
10314;DHT22;5202;49.138;10.090;2023-05-15T13:33:41;15.80;99.90
10314;DHT22;5202;49.138;10.090;2023-05-15T13:36:10;15.80;99.90
10314;DHT22;5202;49.138;10.090;2023-05-15T13:38:38;15.90;99.90
10314;DHT22;5202;49.138;10.090;2023-05-15T13:41:06;15.90;99.90
10314;DHT22;5202;49.138;10.090;2023-05-15T13:43:34;16.00;99.90
10314;DHT22;5202;49.138;10.090;2023-05-15T13:46:03;16.00;99.90
10314;DHT22;5202;49.138;10.090;2023-05-15T13:48:31;16.00;99.90
10314;DHT22;5202;49.138;10.090;2023-05-15T13:51:01;16.00;99.90
10314;DHT22;5202;49.138;10.090;2023-05-15T13:53:30;15.90;99.90
10314;DHT22;5202;49.138;10.090;2023-05-15T13:55:58;15.80;99.90
10314;DHT22;5202;49.138;10.090;2023-05-15T13:58:26;15.60;99.90
10314;DHT22;5202;49.138;10.090;2023-05-15T14:00:54;15.60;99.90
10314;DHT22;5202;49.138;10.090;2023-05-15T14:03:23;15.40;99.90
10314;DHT22;5202;49.138;10.090;2023-05-15T14:05:51;15.30;99.90
10314;DHT22;5202;49.138;10.090;2023-05-15T14:08:21;15.20;99.90
10314;DHT22;5202;49.138;10.090;2023-05-15T14:10:49;15.10;99.90
10314;DHT22;5202;49.138;10.090;2023-05-15T14:13:17;15.10;99.90
10314;DHT22;5202;49.138;10.090;2023-05-15T14:15:46;15.00;99.90
10314;DHT22;5202;49.138;10.090;2023-05-15T14:18:14;15.00;99.90
10314;DHT22;5202;49.138;10.090;2023-05-15T14:20:42;15.10;99.90
10314;DHT22;5202;49.138;10.090;2023-05-15T14:23:10;15.30;99.90
10314;DHT22;5202;49.138;10.090;2023-05-15T14:25:41;15.40;99.90
10314;DHT22;5202;49.138;10.090;2023-05-15T14:28:09;15.40;99.90
10314;DHT22;5202;49.138;10.090;2023-05-15T14:30:39;15.30;99.90
10314;DHT22;5202;49.138;10.090;2023-05-15T14:33:07;15.40;99.90
10314;DHT22;5202;49.138;10.090;2023-05-15T14:35:37;15.50;99.90
10314;DHT22;5202;49.138;10.090;2023-05-15T14:38:05;15.60;99.90
10314;DHT22;5202;49.138;10.090;2023-05-15T14:40:34;15.70;99.90
10314;DHT22;5202;49.138;10.090;2023-05-15T14:43:03;15.80;99.90
10314;DHT22;5202;49.138;10.090;2023-05-15T14:45:32;15.70;99.90
10314;DHT22;5202;49.138;10.090;2023-05-15T14:48:00;15.80;99.90
10314;DHT22;5202;49.138;10.090;2023-05-15T14:50:28;15.90;99.90
10314;DHT22;5202;49.138;10.090;2023-05-15T14:52:56;15.90;99.90
10314;DHT22;5202;49.138;10.090;2023-05-15T14:55:25;16.10;99.90
10314;DHT22;5202;49.138;10.090;2023-05-15T14:57:53;16.10;99.90
10314;DHT22;5202;49.138;10.090;2023-05-15T15:00:23;16.20;99.90
10314;DHT22;5202;49.138;10.090;2023-05-15T15:02:51;16.20;99.90
10314;DHT22;5202;49.138;10.090;2023-05-15T15:05:20;16.40;99.90
10314;DHT22;5202;49.138;10.090;2023-05-15T15:08:00;16.60;99.90
10314;DHT22;5202;49.138;10.090;2023-05-15T15:10:30;16.90;99.90
10314;DHT22;5202;49.138;10.090;2023-05-15T15:12:59;16.90;99.10
10314;DHT22;5202;49.138;10.090;2023-05-15T15:15:30;16.80;99.90
10314;DHT22;5202;49.138;10.090;2023-05-15T15:17:59;16.60;99.90
10314;DHT22;5202;49.138;10.090;2023-05-15T15:20:28;16.30;99.90
10314;DHT22;5202;49.138;10.090;2023-05-15T15:22:56;16.10;99.90
10314;DHT22;5202;49.138;10.090;2023-05-15T15:25:25;16.00;99.90
10314;DHT22;5202;49.138;10.090;2023-05-15T15:27:53;15.90;99.90
10314;DHT22;5202;49.138;10.090;2023-05-15T15:30:21;15.80;99.90
10314;DHT22;5202;49.138;10.090;2023-05-15T15:32:51;15.80;99.90
10314;DHT22;5202;49.138;10.090;2023-05-15T15:35:20;15.80;99.90
10314;DHT22;5202;49.138;10.090;2023-05-15T15:37:49;15.80;99.90
10314;DHT22;5202;49.138;10.090;2023-05-15T15:40:17;15.70;99.90
10314;DHT22;5202;49.138;10.090;2023-05-15T15:42:46;15.70;99.90
10314;DHT22;5202;49.138;10.090;2023-05-15T15:45:14;15.70;99.90
10314;DHT22;5202;49.138;10.090;2023-05-15T15:47:43;15.70;99.90
10314;DHT22;5202;49.138;10.090;2023-05-15T15:50:12;15.90;99.90
10314;DHT22;5202;49.138;10.090;2023-05-15T15:52:41;16.10;98.90